createdAt,value
2023-03-08T00:02:04.604Z,99972.31
2023-03-08T00:07:06.108Z,99978.78
2023-03-08T00:12:08.454Z,99968.97
2023-03-08T00:17:09.932Z,99966.75
2023-03-08T00:22:12.013Z,99970.09
2023-03-08T00:27:13.499Z,99960.78
2023-03-08T00:32:16.946Z,99971.50
2023-03-08T00:37:18.805Z,99974.69
2023-03-08T00:42:22.041Z,99963.88
2023-03-08T00:47:23.514Z,99963.09
2023-03-08T00:52:25.123Z,99958.63
2023-03-08T00:57:26.599Z,99977.88
2023-03-08T01:02:28.134Z,99963.13
2023-03-08T01:07:30.138Z,99963.56
2023-03-08T01:12:35.957Z,99963.53
2023-03-08T01:17:37.479Z,99957.97
2023-03-08T01:22:39.311Z,99951.88
2023-03-08T01:27:40.773Z,99938.03
2023-03-08T01:32:42.388Z,99942.91
2023-03-08T01:37:43.928Z,99943.13
2023-03-08T01:42:45.444Z,99933.88
2023-03-08T01:47:46.966Z,99930.22
2023-03-08T01:52:52.503Z,99925.34
2023-03-08T01:57:55.822Z,99937.50
2023-03-08T02:03:01.093Z,99931.69
2023-03-08T02:08:02.576Z,99921.47
2023-03-08T02:13:06.501Z,99918.78
2023-03-08T02:18:08.071Z,99905.13
2023-03-08T02:23:13.842Z,99896.13
2023-03-08T02:28:15.772Z,99880.16
2023-03-08T02:33:18.794Z,99879.44
2023-03-08T02:38:21.880Z,99869.34
2023-03-08T02:43:23.600Z,99866.63
2023-03-08T02:48:25.160Z,99863.34
2023-03-08T02:53:26.724Z,99859.50
2023-03-08T02:58:28.359Z,99854.03
2023-03-08T03:03:31.433Z,99847.13
2023-03-08T03:08:33.027Z,99851.72
2023-03-08T03:13:34.532Z,99852.72
2023-03-08T03:18:36.088Z,99853.47
2023-03-08T03:23:37.919Z,99862.72
2023-03-08T03:28:39.944Z,99854.19
2023-03-08T03:33:41.944Z,99853.84
2023-03-08T03:38:43.727Z,99845.66
2023-03-08T03:43:45.899Z,99847.13
2023-03-08T03:48:47.459Z,99837.13
2023-03-08T03:53:49.521Z,99835.56
2023-03-08T03:58:52.549Z,99833.72
2023-03-08T04:03:55.418Z,99823.75
2023-03-08T04:08:59.373Z,99809.00
2023-03-08T04:14:00.939Z,99806.25
2023-03-08T04:19:05.699Z,99809.97
2023-03-08T04:24:07.643Z,99804.56
2023-03-08T04:29:09.137Z,99791.47
2023-03-08T04:34:10.640Z,99775.91
2023-03-08T04:39:12.207Z,99771.31
2023-03-08T04:44:13.725Z,99771.81
2023-03-08T04:49:15.307Z,99770.28
2023-03-08T04:54:16.805Z,99764.56
2023-03-08T04:59:18.333Z,99745.81
2023-03-08T05:04:19.867Z,99748.50
2023-03-08T05:09:21.402Z,99740.94
2023-03-08T05:14:22.905Z,99732.06
2023-03-08T05:19:24.850Z,99727.69
2023-03-08T05:24:27.273Z,99725.47
2023-03-08T05:29:28.756Z,99717.31
2023-03-08T05:34:30.475Z,99720.00
2023-03-08T05:39:32.046Z,99701.56
2023-03-08T05:44:33.577Z,99691.97
2023-03-08T05:49:35.110Z,99680.09
2023-03-08T05:54:36.631Z,99678.56
2023-03-08T05:59:38.152Z,99677.50
2023-03-08T06:04:39.625Z,99678.25
2023-03-08T06:09:41.078Z,99668.78
2023-03-08T06:14:42.590Z,99654.31
2023-03-08T06:19:44.189Z,99649.78
2023-03-08T06:24:49.626Z,99643.09
2023-03-08T06:29:51.182Z,99643.25
2023-03-08T06:34:52.669Z,99642.97
2023-03-08T06:39:54.174Z,99642.88
2023-03-08T06:44:55.679Z,99644.41
2023-03-08T06:49:57.149Z,99647.66
2023-03-08T06:54:58.665Z,99654.47
2023-03-08T07:00:00.194Z,99657.06
2023-03-08T07:05:01.757Z,99654.06
2023-03-08T07:10:04.440Z,99659.78
2023-03-08T07:15:14.800Z,99650.66
2023-03-08T07:20:18.675Z,99649.66
2023-03-08T07:25:21.214Z,99648.94
2023-03-08T07:30:22.782Z,99642.84
2023-03-08T07:35:24.281Z,99651.31
2023-03-08T07:40:25.827Z,99649.63
2023-03-08T07:45:27.363Z,99641.19
2023-03-08T07:50:28.929Z,99638.41
2023-03-08T07:55:30.843Z,99635.03
2023-03-08T08:00:32.392Z,99623.56
2023-03-08T08:05:36.049Z,99628.75
2023-03-08T08:10:37.653Z,99628.09
2023-03-08T08:15:39.288Z,99615.69
2023-03-08T08:20:41.018Z,99608.19
2023-03-08T08:25:43.724Z,99600.78
2023-03-08T08:30:45.219Z,99603.06
2023-03-08T08:35:46.803Z,99598.53
2023-03-08T08:40:48.468Z,99597.09
2023-03-08T08:45:55.065Z,99593.31
2023-03-08T08:50:58.314Z,99593.16
2023-03-08T08:55:59.900Z,99587.91
2023-03-08T09:01:01.427Z,99589.31
2023-03-08T09:06:03.018Z,99578.34
2023-03-08T09:11:07.317Z,99586.25
2023-03-08T09:16:23.518Z,99584.00
2023-03-08T09:21:26.280Z,99572.63
2023-03-08T09:26:32.425Z,99565.34
2023-03-08T09:31:36.442Z,99565.75
2023-03-08T09:36:39.660Z,99551.16
2023-03-08T09:41:44.386Z,99558.31
2023-03-08T09:47:01.172Z,99569.13
2023-03-08T09:52:39.956Z,99556.34
2023-03-08T09:57:52.432Z,99549.69
2023-03-08T10:03:15.501Z,99553.50
2023-03-08T10:08:21.983Z,99542.06
2023-03-08T10:13:34.230Z,99538.81
2023-03-08T10:18:49.149Z,99538.63
2023-03-08T10:24:02.020Z,99524.06
2023-03-08T10:29:03.824Z,99521.28
2023-03-08T10:34:19.152Z,99533.69
2023-03-08T10:39:22.578Z,99507.19
2023-03-08T10:44:36.969Z,99499.94
2023-03-08T10:49:38.549Z,99483.47
2023-03-08T10:54:40.010Z,99483.28
2023-03-08T10:59:49.793Z,99460.59
2023-03-08T11:04:58.158Z,99461.97
2023-03-08T11:10:21.141Z,99469.66
2023-03-08T11:15:22.994Z,99475.38
2023-03-08T11:20:44.541Z,99491.09
2023-03-08T11:26:00.895Z,99511.94
2023-03-08T11:31:33.180Z,99522.72
2023-03-08T11:37:05.099Z,99529.75
2023-03-08T11:42:22.199Z,99510.88
2023-03-08T11:47:53.966Z,99489.53
2023-03-08T11:53:09.332Z,99482.84
2023-03-08T11:58:15.315Z,99485.53
2023-03-08T12:03:20.626Z,99478.84
2023-03-08T12:08:29.107Z,99472.69
2023-03-08T12:13:44.772Z,99457.28
2023-03-08T12:18:49.003Z,99457.97
2023-03-08T12:24:20.719Z,99457.13
2023-03-08T12:29:39.243Z,99471.28
2023-03-08T12:34:43.795Z,99463.09
2023-03-08T12:39:56.193Z,99455.09
2023-03-08T12:45:24.800Z,99463.09
2023-03-08T12:50:26.520Z,99460.19
2023-03-08T12:55:33.205Z,99457.59
2023-03-08T13:00:39.215Z,99449.19
2023-03-08T13:05:45.589Z,99462.66
2023-03-08T13:10:49.828Z,99455.50
2023-03-08T13:15:51.355Z,99455.81
2023-03-08T13:21:01.550Z,99457.50
2023-03-08T13:26:23.611Z,99457.03
2023-03-08T13:31:32.262Z,99443.25
2023-03-08T13:36:34.330Z,99462.06
2023-03-08T13:41:40.724Z,99449.88
2023-03-08T13:46:43.443Z,99450.13
2023-03-08T13:51:48.936Z,99456.81
2023-03-08T13:56:53.630Z,99447.56
2023-03-08T14:01:56.029Z,99433.03
2023-03-08T14:06:59.550Z,99436.34
2023-03-08T14:12:04.793Z,99416.13
2023-03-08T14:17:06.865Z,99424.69
2023-03-08T14:22:21.193Z,99428.00
2023-03-08T14:27:42.477Z,99424.94
2023-03-08T14:33:01.294Z,99411.94
2023-03-08T14:38:03.943Z,99412.69
2023-03-08T14:43:06.923Z,99409.59
2023-03-08T14:48:23.690Z,99405.22
2023-03-08T14:53:25.171Z,99410.91
2023-03-08T14:58:38.033Z,99421.63
2023-03-08T15:03:39.518Z,99397.56
2023-03-08T15:08:41.169Z,99402.53
2023-03-08T15:13:42.774Z,99386.88
2023-03-08T15:18:44.390Z,99389.69
2023-03-08T15:23:47.674Z,99379.28
2023-03-08T15:28:49.275Z,99386.59
2023-03-08T15:33:50.821Z,99391.59
2023-03-08T15:38:52.414Z,99379.75
2023-03-08T15:43:54.944Z,99380.34
2023-03-08T15:48:56.448Z,99381.13
2023-03-08T15:53:58.215Z,99382.97
2023-03-08T15:58:59.792Z,99365.28
2023-03-08T16:04:01.537Z,99356.91
2023-03-08T16:09:03.066Z,99372.75
2023-03-08T16:14:04.570Z,99372.22
2023-03-08T16:19:06.071Z,99364.34
2023-03-08T16:24:07.618Z,99376.69
2023-03-08T16:29:09.263Z,99366.44
2023-03-08T16:34:11.726Z,99364.00
2023-03-08T16:39:13.319Z,99366.16
2023-03-08T16:44:21.767Z,99363.28
2023-03-08T16:49:28.187Z,99371.75
2023-03-08T16:54:29.822Z,99371.34
2023-03-08T16:59:32.003Z,99362.38
2023-03-08T17:04:33.536Z,99385.91
2023-03-08T17:09:36.298Z,99384.13
2023-03-08T17:14:37.873Z,99363.91
2023-03-08T17:19:41.061Z,99353.81
2023-03-08T17:24:42.815Z,99360.03
2023-03-08T17:29:44.350Z,99374.13
2023-03-08T17:34:45.882Z,99361.44
2023-03-08T17:39:47.405Z,99348.69
2023-03-08T17:44:50.034Z,99339.59
2023-03-08T17:49:51.547Z,99343.38
2023-03-08T17:54:54.431Z,99342.00
2023-03-08T18:00:20.268Z,99343.69
2023-03-08T18:05:22.024Z,99368.13
2023-03-08T18:10:23.607Z,99354.03
2023-03-08T18:15:25.167Z,99346.41
2023-03-08T18:20:26.697Z,99351.19
2023-03-08T18:25:28.228Z,99358.75
2023-03-08T18:30:29.708Z,99356.94
2023-03-08T18:35:31.417Z,99353.81
2023-03-08T18:40:33.023Z,99367.50
2023-03-08T18:45:34.497Z,99368.66
2023-03-08T18:50:37.032Z,99356.47
2023-03-08T18:55:39.341Z,99358.34
2023-03-08T19:00:40.921Z,99357.59
2023-03-08T19:05:42.825Z,99328.97
2023-03-08T19:10:44.455Z,99327.91
2023-03-08T19:15:45.930Z,99341.38
2023-03-08T19:20:47.416Z,99324.50
2023-03-08T19:26:07.329Z,99317.94
2023-03-08T19:31:16.290Z,99311.56
2023-03-08T19:36:17.809Z,99289.03
2023-03-08T19:41:19.301Z,99299.16
2023-03-08T19:46:20.977Z,99330.44
2023-03-08T19:51:22.453Z,99337.13
2023-03-08T19:56:25.234Z,99313.97
2023-03-08T20:01:27.557Z,99298.94
2023-03-08T20:06:32.030Z,99314.75
2023-03-08T20:11:33.868Z,99314.19
2023-03-08T20:16:35.866Z,99336.94
2023-03-08T20:21:37.838Z,99344.41
2023-03-08T20:26:41.875Z,99337.72
2023-03-08T20:31:45.015Z,99348.44
2023-03-08T20:36:47.453Z,99350.69
2023-03-08T20:41:48.999Z,99356.28
2023-03-08T20:46:50.461Z,99357.97
2023-03-08T20:51:51.975Z,99341.09
2023-03-08T20:56:53.515Z,99337.63
2023-03-08T21:01:55.680Z,99325.47
2023-03-08T21:06:57.442Z,99328.94
2023-03-08T21:11:58.962Z,99326.69
2023-03-08T21:17:00.455Z,99333.34
2023-03-08T21:22:03.457Z,99313.53
2023-03-08T21:27:04.958Z,99318.09
2023-03-08T21:32:06.502Z,99324.63
2023-03-08T21:37:07.997Z,99338.53
2023-03-08T21:42:10.549Z,99336.53
2023-03-08T21:47:12.042Z,99325.78
2023-03-08T21:52:13.588Z,99312.97
2023-03-08T21:57:15.072Z,99319.28
2023-03-08T22:02:16.570Z,99326.81
2023-03-08T22:07:18.051Z,99321.66
2023-03-08T22:12:19.920Z,99328.31
2023-03-08T22:17:21.439Z,99325.75
2023-03-08T22:22:23.299Z,99322.53
2023-03-08T22:27:27.952Z,99322.94
2023-03-08T22:32:29.534Z,99328.19
2023-03-08T22:37:31.076Z,99328.03
2023-03-08T22:42:35.534Z,99336.09
2023-03-08T22:47:37.025Z,99340.19
2023-03-08T22:52:38.587Z,99333.94
2023-03-08T22:57:40.115Z,99321.94
2023-03-08T23:02:43.224Z,99326.63
2023-03-08T23:07:47.221Z,99321.97
2023-03-08T23:12:48.773Z,99328.88
2023-03-08T23:17:50.292Z,99336.91
2023-03-08T23:22:51.798Z,99352.19
2023-03-08T23:27:54.828Z,99335.38
2023-03-08T23:32:56.366Z,99333.28
2023-03-08T23:37:57.899Z,99318.28
2023-03-08T23:42:59.356Z,99311.50
2023-03-08T23:48:03.141Z,99314.06
2023-03-08T23:53:05.377Z,99317.97
2023-03-08T23:58:07.349Z,99334.41
